This is the latest recevied weather packets stored in our database for station/object NG6B-2. If no packets are shown the sender has not sent any weather packets the latest 10 day(s).
| Time | Temp. | Humidity | Pressure | Rain* | Wind** | Luminosity | Snow |
|---|---|---|---|---|---|---|---|
| 1777683727 | 26.67° C | 13% | 1004 hPa | 0 mm | - | - | - |
| 1777681926 | 26.67° C | 13% | 1003.9 hPa | 0 mm | - | - | - |
| 1777680125 | 27.22° C | 14% | 1004 hPa | 0 mm | - | - | - |
| 1777678324 | 27.22° C | 14% | 1004 hPa | 0 mm | - | - | - |
| 1777676523 | 27.22° C | 15% | 1004 hPa | 0 mm | - | - | - |
| 1777674722 | 27.22° C | 16% | 1004.1 hPa | 0 mm | - | - | - |
| 1777672921 | 27.78° C | 16% | 1004.5 hPa | 0 mm | - | - | - |
| 1777671120 | 26.67° C | 20% | 1004.9 hPa | 0 mm | - | - | - |
| 1777669319 | 27.22° C | 20% | 1005.4 hPa | 0 mm | - | - | - |
| 1777667518 | 26.67° C | 20% | 1005.6 hPa | 0 mm | - | - | - |
| 1777665717 | 26.11° C | 22% | 1005.9 hPa | 0 mm | - | - | - |
| 1777663916 | 25.56° C | 23% | 1006.2 hPa | 0 mm | - | - | - |
| 1777662115 | 25° C | 24% | 1006.7 hPa | 0 mm | - | - | - |
| 1777660314 | 24.44° C | 24% | 1007 hPa | 0 mm | - | - | - |
| 1777658513 | 23.33° C | 27% | 1007.4 hPa | 0 mm | - | - | - |
| 1777656712 | 23.33° C | 30% | 1007.5 hPa | 0 mm | - | - | - |
| 1777654911 | 22.78° C | 32% | 1007.5 hPa | 0 mm | - | - | - |
| 1777653110 | 21.67° C | 35% | 1007.4 hPa | 0 mm | - | - | - |
| 1777651309 | 21.11° C | 42% | 1007.1 hPa | 0 mm | - | - | - |
| 1777649508 | 19.44° C | 46% | 1006.8 hPa | 0 mm | - | - | - |
| 1777647707 | 18.33° C | 53% | 1006.6 hPa | 0 mm | - | - | - |
| 1777645906 | 16.67° C | 60% | 1006.5 hPa | 0 mm | - | - | - |
| 1777644105 | 15° C | 68% | 1006.4 hPa | 0 mm | - | - | - |
| 1777642304 | 12.22° C | 77% | 1006.2 hPa | 0 mm | - | - | - |
| 1777640503 | 12.78° C | 74% | 1006 hPa | 0 mm | - | - | - |
* Rain latest hour (hover to see other rain measurements)
** Current wind speed in m/s (hover to see current wind gust speed)